createdAt,value
2022-10-21T00:01:14.766Z,12.30
2022-10-21T00:03:45.217Z,12.30
2022-10-21T00:06:15.862Z,12.30
2022-10-21T00:08:45.914Z,12.40
2022-10-21T00:11:19.593Z,12.30
2022-10-21T00:13:49.558Z,12.20
2022-10-21T00:16:21.853Z,12.10
2022-10-21T00:18:57.341Z,12.00
2022-10-21T00:21:29.871Z,11.90
2022-10-21T00:23:59.802Z,11.90
2022-10-21T00:26:37.606Z,11.80
2022-10-21T00:29:08.983Z,11.80
2022-10-21T00:31:39.178Z,11.80
2022-10-21T00:34:09.092Z,11.80
2022-10-21T00:36:42.547Z,11.80
2022-10-21T00:39:13.019Z,11.80
2022-10-21T00:41:45.896Z,11.70
2022-10-21T00:44:17.132Z,11.60
2022-10-21T00:46:53.375Z,11.70
2022-10-21T00:49:41.516Z,11.80
2022-10-21T00:52:15.721Z,11.70
2022-10-21T00:54:47.090Z,11.90
2022-10-21T00:57:21.697Z,12.00
2022-10-21T00:59:57.688Z,12.00
2022-10-21T01:02:28.779Z,12.10
2022-10-21T01:05:02.108Z,12.20
2022-10-21T01:07:35.341Z,12.10
2022-10-21T01:10:09.367Z,12.10
2022-10-21T01:12:54.878Z,12.00
2022-10-21T01:15:30.939Z,12.00
2022-10-21T01:18:10.651Z,12.10
2022-10-21T01:21:13.298Z,12.10
2022-10-21T01:24:09.269Z,12.20
2022-10-21T01:27:15.179Z,12.20
2022-10-21T01:30:12.668Z,12.10
2022-10-21T01:33:16.668Z,12.10
2022-10-21T01:35:52.369Z,12.20
2022-10-21T01:38:27.045Z,12.20
2022-10-21T01:41:03.462Z,12.20
2022-10-21T01:43:40.769Z,12.10
2022-10-21T01:46:17.017Z,12.10
2022-10-21T01:48:55.495Z,12.00
2022-10-21T01:51:30.083Z,12.10
2022-10-21T01:54:05.508Z,12.10
2022-10-21T01:56:37.577Z,12.20
2022-10-21T01:59:09.237Z,12.20
2022-10-21T02:01:40.971Z,12.10
2022-10-21T02:04:16.225Z,12.10
2022-10-21T02:06:47.185Z,12.10
2022-10-21T02:09:17.122Z,12.10
2022-10-21T02:11:51.656Z,12.00
2022-10-21T02:14:27.097Z,12.00
2022-10-21T02:16:58.752Z,12.00
2022-10-21T02:22:25.045Z,12.00
2022-10-21T02:24:58.312Z,12.00
2022-10-21T02:27:28.958Z,11.90
2022-10-21T02:30:01.315Z,11.90
2022-10-21T02:32:39.581Z,11.90
2022-10-21T02:35:21.853Z,12.10
2022-10-21T02:37:59.150Z,11.90
2022-10-21T02:40:32.909Z,11.90
2022-10-21T02:43:08.121Z,11.90
2022-10-21T02:45:38.458Z,11.90
2022-10-21T02:48:09.930Z,11.80
2022-10-21T02:50:42.692Z,11.90
2022-10-21T02:53:16.290Z,11.90
2022-10-21T02:55:46.135Z,11.70
2022-10-21T02:58:16.443Z,11.90
2022-10-21T03:00:46.396Z,12.00
2022-10-21T03:03:16.688Z,11.90
2022-10-21T03:05:49.389Z,11.90
2022-10-21T03:08:20.376Z,11.90
2022-10-21T03:10:53.290Z,12.00
2022-10-21T03:13:24.977Z,12.10
2022-10-21T03:15:54.998Z,12.10
2022-10-21T03:18:26.846Z,12.10
2022-10-21T03:20:59.353Z,12.20
2022-10-21T03:23:29.219Z,12.20
2022-10-21T03:25:59.314Z,12.50
2022-10-21T03:28:30.487Z,12.10
2022-10-21T03:31:00.742Z,12.10
2022-10-21T03:33:30.654Z,12.10
2022-10-21T03:36:04.495Z,12.00
2022-10-21T03:38:35.263Z,11.90
2022-10-21T03:41:05.700Z,11.90
2022-10-21T03:43:35.620Z,11.90
2022-10-21T03:46:06.843Z,11.90
2022-10-21T03:48:36.857Z,11.80
2022-10-21T03:51:10.140Z,11.90
2022-10-21T03:53:43.945Z,11.80
2022-10-21T03:56:15.420Z,11.80
2022-10-21T03:58:45.520Z,11.70
2022-10-21T04:01:16.870Z,11.70
2022-10-21T04:03:49.515Z,11.60
2022-10-21T04:06:23.060Z,11.60
2022-10-21T04:08:53.037Z,11.70
2022-10-21T04:11:23.728Z,11.60
2022-10-21T04:13:54.346Z,11.70
2022-10-21T04:16:25.648Z,11.60
2022-10-21T04:18:55.653Z,11.60
2022-10-21T04:21:28.223Z,11.60
2022-10-21T04:23:58.163Z,11.60
2022-10-21T04:26:28.380Z,11.60
2022-10-21T04:28:58.267Z,11.60
2022-10-21T04:31:32.340Z,11.60
2022-10-21T04:34:03.054Z,11.60
2022-10-21T04:36:36.395Z,11.60
2022-10-21T04:39:06.728Z,11.50
2022-10-21T04:41:38.888Z,11.60
2022-10-21T04:44:09.159Z,11.60
2022-10-21T04:46:39.926Z,11.60
2022-10-21T04:49:09.959Z,11.60
2022-10-21T04:51:43.062Z,11.60
2022-10-21T04:54:13.550Z,11.60
2022-10-21T04:56:44.231Z,11.70
2022-10-21T04:59:14.414Z,11.70
2022-10-21T05:01:45.096Z,11.70
2022-10-21T05:04:14.956Z,11.70
2022-10-21T05:06:48.142Z,11.70
2022-10-21T05:09:18.253Z,11.70
2022-10-21T05:11:48.923Z,11.70
2022-10-21T05:14:22.442Z,11.70
2022-10-21T05:16:53.428Z,11.70
2022-10-21T05:19:24.794Z,11.80
2022-10-21T05:22:04.216Z,11.80
2022-10-21T05:24:34.117Z,11.80
2022-10-21T05:27:04.184Z,11.70
2022-10-21T05:29:34.180Z,11.80
2022-10-21T05:32:05.152Z,11.80
2022-10-21T05:34:35.029Z,11.80
2022-10-21T05:37:07.612Z,11.90
2022-10-21T05:39:37.628Z,11.90
2022-10-21T05:42:08.137Z,11.90
2022-10-21T05:44:38.015Z,11.90
2022-10-21T05:47:08.165Z,11.90
2022-10-21T05:49:38.018Z,11.80
2022-10-21T05:52:10.873Z,11.80
2022-10-21T05:54:41.252Z,11.80
2022-10-21T05:57:11.316Z,11.70
2022-10-21T05:59:41.175Z,11.70
2022-10-21T06:02:12.367Z,11.80
2022-10-21T06:04:42.232Z,11.80
2022-10-21T06:07:15.164Z,11.80
2022-10-21T06:09:45.055Z,11.70
2022-10-21T06:12:15.052Z,11.70
2022-10-21T06:14:45.028Z,11.80
2022-10-21T06:17:14.913Z,11.90
2022-10-21T06:19:47.357Z,12.00
2022-10-21T06:22:22.862Z,12.00
2022-10-21T06:24:52.832Z,12.00
2022-10-21T06:27:22.928Z,12.00
2022-10-21T06:29:52.838Z,12.00
2022-10-21T06:32:23.817Z,12.00
2022-10-21T06:34:54.397Z,12.00
2022-10-21T06:37:27.075Z,12.00
2022-10-21T06:39:57.019Z,12.00
2022-10-21T06:42:26.924Z,12.00
2022-10-21T06:45:00.133Z,11.90
2022-10-21T06:47:30.555Z,11.90
2022-10-21T06:50:03.129Z,11.80
2022-10-21T06:52:36.719Z,12.00
2022-10-21T06:55:07.184Z,11.80
2022-10-21T06:57:37.526Z,11.80
2022-10-21T07:00:10.015Z,11.80
2022-10-21T07:02:40.943Z,11.80
2022-10-21T07:05:11.748Z,11.80
2022-10-21T07:07:44.997Z,11.80
2022-10-21T07:10:15.054Z,11.80
2022-10-21T07:12:46.822Z,11.80
2022-10-21T07:15:16.717Z,11.90
2022-10-21T07:17:46.639Z,11.90
2022-10-21T07:20:16.534Z,11.90
2022-10-21T07:22:49.985Z,11.90
2022-10-21T07:25:20.167Z,11.90
2022-10-21T07:27:52.018Z,11.90
2022-10-21T07:30:26.826Z,11.90
2022-10-21T07:32:56.756Z,11.90
2022-10-21T07:35:26.939Z,11.90
2022-10-21T07:37:59.687Z,11.80
2022-10-21T07:40:30.091Z,11.80
2022-10-21T07:43:00.807Z,11.80
2022-10-21T07:45:30.728Z,11.80
2022-10-21T07:48:01.255Z,11.80
2022-10-21T07:50:31.165Z,11.80
2022-10-21T07:53:12.007Z,11.90
2022-10-21T07:55:42.766Z,11.80
2022-10-21T07:58:13.868Z,12.00
2022-10-21T08:00:46.497Z,12.00
2022-10-21T08:03:19.330Z,12.10
2022-10-21T08:05:49.236Z,12.10
2022-10-21T08:08:22.914Z,12.40
2022-10-21T08:10:53.557Z,12.20
2022-10-21T08:13:24.067Z,12.30
2022-10-21T08:15:56.935Z,12.30
2022-10-21T08:18:28.529Z,12.30
2022-10-21T08:20:58.663Z,12.40
2022-10-21T08:23:32.061Z,12.30
2022-10-21T08:26:03.145Z,12.40
2022-10-21T08:28:34.859Z,12.60
2022-10-21T08:31:08.829Z,12.60
2022-10-21T08:33:39.290Z,12.70
2022-10-21T08:36:10.504Z,12.80
2022-10-21T08:38:43.370Z,12.80
2022-10-21T08:41:39.001Z,12.80
2022-10-21T08:44:14.687Z,12.90
2022-10-21T08:46:49.966Z,12.90
2022-10-21T08:49:25.095Z,13.00
2022-10-21T08:52:04.165Z,13.00
2022-10-21T08:54:45.031Z,13.00
2022-10-21T08:57:15.471Z,12.90
2022-10-21T08:59:46.132Z,13.00
2022-10-21T09:02:30.730Z,13.00
2022-10-21T09:08:05.060Z,13.00
2022-10-21T09:10:48.752Z,12.90
2022-10-21T09:13:24.350Z,12.90
2022-10-21T09:16:03.701Z,12.90
2022-10-21T09:18:46.656Z,12.90
2022-10-21T09:21:23.373Z,13.00
2022-10-21T09:24:02.202Z,12.90
2022-10-21T09:26:46.171Z,13.00
2022-10-21T09:29:25.457Z,13.10
2022-10-21T09:32:02.044Z,13.10
2022-10-21T09:34:44.210Z,13.00
2022-10-21T09:37:21.607Z,13.10
2022-10-21T09:39:56.862Z,13.10
2022-10-21T09:42:46.388Z,13.10
2022-10-21T09:45:24.507Z,13.10
2022-10-21T09:47:59.904Z,13.10
2022-10-21T09:53:12.004Z,13.10
2022-10-21T09:55:43.122Z,13.10
2022-10-21T09:58:28.391Z,12.90
2022-10-21T10:00:59.029Z,12.90
2022-10-21T10:03:37.984Z,12.90
2022-10-21T10:06:08.994Z,13.00
2022-10-21T10:08:41.431Z,13.00
2022-10-21T10:11:21.727Z,13.00
2022-10-21T10:13:56.715Z,13.00
2022-10-21T10:16:30.691Z,13.10
2022-10-21T10:19:18.277Z,13.10
2022-10-21T10:21:51.358Z,13.00
2022-10-21T10:24:24.671Z,13.00
2022-10-21T10:26:55.201Z,13.10
2022-10-21T10:29:30.762Z,13.10
2022-10-21T10:32:03.631Z,13.30
2022-10-21T10:34:37.135Z,13.30
2022-10-21T10:37:09.879Z,13.20
2022-10-21T10:39:42.092Z,13.10
2022-10-21T10:42:12.453Z,13.20
2022-10-21T10:44:46.738Z,13.00
2022-10-21T10:47:25.782Z,12.90
2022-10-21T10:49:55.834Z,12.90
2022-10-21T10:52:27.253Z,12.90
2022-10-21T10:55:19.694Z,12.90
2022-10-21T10:58:11.334Z,12.90
2022-10-21T11:00:51.283Z,12.90
2022-10-21T11:03:26.244Z,13.00
2022-10-21T11:06:04.130Z,13.00
2022-10-21T11:08:38.158Z,12.90
2022-10-21T11:11:13.647Z,13.00
2022-10-21T11:13:43.929Z,13.00
2022-10-21T11:16:50.584Z,13.10
2022-10-21T11:19:31.747Z,13.10
2022-10-21T11:22:16.437Z,13.10
2022-10-21T11:24:59.763Z,13.10
2022-10-21T11:27:46.550Z,13.20
2022-10-21T11:30:21.294Z,13.20
2022-10-21T11:33:06.396Z,13.20
2022-10-21T11:35:57.887Z,13.30
2022-10-21T11:38:43.296Z,13.30
2022-10-21T11:41:25.685Z,13.30
2022-10-21T11:44:13.780Z,13.30
2022-10-21T11:46:55.792Z,13.30
2022-10-21T11:49:45.768Z,13.20
2022-10-21T11:52:27.040Z,13.20
2022-10-21T11:55:20.701Z,13.20
2022-10-21T11:57:58.495Z,13.20
2022-10-21T12:00:30.154Z,13.20
2022-10-21T12:03:21.032Z,13.20
2022-10-21T12:06:03.033Z,13.20
2022-10-21T12:08:41.349Z,13.10
2022-10-21T12:11:19.894Z,13.10
2022-10-21T12:13:55.275Z,13.10
2022-10-21T12:16:29.557Z,13.10
2022-10-21T12:19:05.085Z,13.10
2022-10-21T12:21:41.314Z,13.00
2022-10-21T12:24:23.962Z,12.90
2022-10-21T12:26:59.214Z,12.80
2022-10-21T12:29:44.549Z,12.80
2022-10-21T12:32:25.338Z,12.90
2022-10-21T12:34:57.531Z,12.90
2022-10-21T12:38:07.409Z,13.00
2022-10-21T12:40:43.074Z,13.00
2022-10-21T12:43:23.917Z,13.10
2022-10-21T12:46:09.845Z,13.10
2022-10-21T12:48:42.449Z,13.10
2022-10-21T12:51:26.069Z,13.10
2022-10-21T12:54:00.780Z,13.20
2022-10-21T12:56:34.620Z,13.20
2022-10-21T12:59:07.167Z,13.20
2022-10-21T13:01:42.343Z,13.20
2022-10-21T13:04:42.465Z,13.10
2022-10-21T13:07:48.448Z,13.10
2022-10-21T13:10:40.466Z,13.10
2022-10-21T13:13:31.966Z,13.10
2022-10-21T13:16:03.407Z,13.00
2022-10-21T13:18:56.145Z,13.00
2022-10-21T13:21:44.103Z,13.00
2022-10-21T13:24:27.449Z,13.00
2022-10-21T13:27:02.247Z,13.00
2022-10-21T13:29:48.116Z,13.10
2022-10-21T13:32:32.809Z,13.10
2022-10-21T13:35:34.389Z,13.00
2022-10-21T13:38:08.424Z,13.00
2022-10-21T13:40:51.440Z,13.10
2022-10-21T13:43:29.379Z,13.10
2022-10-21T13:46:09.421Z,13.10
2022-10-21T13:48:43.404Z,13.10
2022-10-21T13:51:22.183Z,13.10
2022-10-21T13:53:55.931Z,13.10
2022-10-21T13:56:27.606Z,13.00
2022-10-21T13:59:00.431Z,13.00
2022-10-21T14:01:36.275Z,12.90
2022-10-21T14:04:16.497Z,13.00
2022-10-21T14:06:50.518Z,13.00
2022-10-21T14:09:23.927Z,13.00
2022-10-21T14:11:56.541Z,13.00
2022-10-21T14:14:31.998Z,13.00
2022-10-21T14:17:06.000Z,13.00
2022-10-21T14:19:40.826Z,12.90
2022-10-21T14:22:11.519Z,12.90
2022-10-21T14:24:44.662Z,12.90
2022-10-21T14:27:17.170Z,12.80
2022-10-21T14:29:51.161Z,12.80
2022-10-21T14:32:24.349Z,12.80
2022-10-21T14:35:09.332Z,12.70
2022-10-21T14:37:44.719Z,12.70
2022-10-21T14:40:32.451Z,12.60
2022-10-21T14:43:05.299Z,12.60
2022-10-21T14:45:47.533Z,12.60
2022-10-21T14:48:25.474Z,12.60
2022-10-21T14:50:59.881Z,12.60
2022-10-21T14:53:33.360Z,12.70
2022-10-21T14:56:06.752Z,12.70
2022-10-21T14:58:39.337Z,12.60
2022-10-21T15:01:25.827Z,12.50
2022-10-21T15:03:58.993Z,12.50
2022-10-21T15:06:31.234Z,12.50
2022-10-21T15:09:21.389Z,12.40
2022-10-21T15:11:51.264Z,12.40
2022-10-21T15:14:24.933Z,12.40
2022-10-21T15:16:59.738Z,12.30
2022-10-21T15:19:33.845Z,12.30
2022-10-21T15:22:07.557Z,12.30
2022-10-21T15:24:46.477Z,12.30
2022-10-21T15:27:20.777Z,12.30
2022-10-21T15:29:51.918Z,12.40
2022-10-21T15:32:30.210Z,12.40
2022-10-21T15:35:01.775Z,12.40
2022-10-21T15:37:31.682Z,12.40
2022-10-21T15:40:02.249Z,12.40
2022-10-21T15:42:32.173Z,12.40
2022-10-21T15:45:03.888Z,12.40
2022-10-21T15:47:36.948Z,12.40
2022-10-21T15:50:15.534Z,12.40
2022-10-21T15:52:48.013Z,12.40
2022-10-21T15:55:18.448Z,12.40
2022-10-21T15:57:48.341Z,12.40
2022-10-21T16:00:22.037Z,12.40
2022-10-21T16:02:54.651Z,12.40
2022-10-21T16:05:25.488Z,12.40
2022-10-21T16:07:55.695Z,12.40
2022-10-21T16:10:31.791Z,12.30
2022-10-21T16:13:02.372Z,12.30
2022-10-21T16:15:33.288Z,12.40
2022-10-21T16:18:05.762Z,12.30
2022-10-21T16:20:36.780Z,12.40
2022-10-21T16:23:06.882Z,12.40
2022-10-21T16:25:37.482Z,12.30
2022-10-21T16:28:11.750Z,12.30
2022-10-21T16:30:42.495Z,12.30
2022-10-21T16:33:14.969Z,12.30
2022-10-21T16:35:48.788Z,12.30
2022-10-21T16:40:49.281Z,12.30
2022-10-21T16:43:19.307Z,12.30
2022-10-21T16:45:49.991Z,12.30
2022-10-21T16:48:22.580Z,12.30
2022-10-21T16:50:52.927Z,12.30
2022-10-21T16:53:23.906Z,12.30
2022-10-21T16:55:54.987Z,12.30
2022-10-21T16:58:27.845Z,12.30
2022-10-21T17:00:58.679Z,12.30
2022-10-21T17:03:31.390Z,12.30
2022-10-21T17:06:02.385Z,12.40
2022-10-21T17:08:32.355Z,12.30
2022-10-21T17:11:02.359Z,12.30
2022-10-21T17:13:32.254Z,12.30
2022-10-21T17:16:03.007Z,12.30
2022-10-21T17:18:35.530Z,12.30
2022-10-21T17:21:06.254Z,12.30
2022-10-21T17:23:36.320Z,12.30
2022-10-21T17:26:07.560Z,12.30
2022-10-21T17:28:37.448Z,12.40
2022-10-21T17:31:08.120Z,12.30
2022-10-21T17:33:40.889Z,12.30
2022-10-21T17:36:11.779Z,12.40
2022-10-21T17:38:41.966Z,12.40
2022-10-21T17:41:13.355Z,12.40
2022-10-21T17:43:43.538Z,12.40
2022-10-21T17:46:21.203Z,12.40
2022-10-21T17:48:55.711Z,12.40
2022-10-21T17:51:27.201Z,12.40
2022-10-21T17:53:57.678Z,12.40
2022-10-21T17:56:28.271Z,12.40
2022-10-21T17:59:01.308Z,12.40
2022-10-21T18:01:31.400Z,12.40
2022-10-21T18:04:04.353Z,12.40
2022-10-21T18:06:35.444Z,12.30
2022-10-21T18:09:06.768Z,12.50
2022-10-21T18:11:37.982Z,12.50
2022-10-21T18:14:08.288Z,12.50
2022-10-21T18:16:38.573Z,12.50
2022-10-21T18:19:12.165Z,12.40
2022-10-21T18:21:42.465Z,12.50
2022-10-21T18:24:12.853Z,12.50
2022-10-21T18:26:43.740Z,12.50
2022-10-21T18:29:13.620Z,12.50
2022-10-21T18:31:44.535Z,12.50
2022-10-21T18:34:17.933Z,12.50
2022-10-21T18:36:49.251Z,12.50
2022-10-21T18:39:19.458Z,12.50
2022-10-21T18:41:49.973Z,12.50
2022-10-21T18:44:19.864Z,12.50
2022-10-21T18:46:55.204Z,12.50
2022-10-21T18:49:28.646Z,12.50
2022-10-21T18:51:59.134Z,12.50
2022-10-21T18:54:29.047Z,12.50
2022-10-21T18:57:00.071Z,12.50
2022-10-21T18:59:30.286Z,12.50
2022-10-21T19:02:00.391Z,12.50
2022-10-21T19:04:32.961Z,12.50
2022-10-21T19:07:03.945Z,12.50
2022-10-21T19:09:33.803Z,12.50
2022-10-21T19:12:04.013Z,12.50
2022-10-21T19:14:33.984Z,12.50
2022-10-21T19:17:04.408Z,12.50
2022-10-21T19:19:39.542Z,12.50
2022-10-21T19:22:09.814Z,12.50
2022-10-21T19:24:39.707Z,12.50
2022-10-21T19:27:10.132Z,12.50
2022-10-21T19:29:40.125Z,12.50
2022-10-21T19:32:10.410Z,12.60
2022-10-21T19:34:44.294Z,12.60
2022-10-21T19:37:15.277Z,12.60
2022-10-21T19:39:45.230Z,12.60
2022-10-21T19:42:15.320Z,12.60
2022-10-21T19:44:45.183Z,12.60
2022-10-21T19:47:15.880Z,12.60
2022-10-21T19:49:48.626Z,12.60
2022-10-21T19:52:19.761Z,12.60
2022-10-21T19:54:52.442Z,12.60
2022-10-21T19:57:22.950Z,12.60
2022-10-21T19:59:52.958Z,12.60
2022-10-21T20:02:23.705Z,12.60
2022-10-21T20:04:56.228Z,12.60
2022-10-21T20:07:26.469Z,12.60
2022-10-21T20:09:56.375Z,12.60
2022-10-21T20:12:26.694Z,12.60
2022-10-21T20:14:56.559Z,12.60
2022-10-21T20:17:27.194Z,12.70
2022-10-21T20:19:59.763Z,12.70
2022-10-21T20:22:30.279Z,12.60
2022-10-21T20:25:00.169Z,12.60
2022-10-21T20:27:30.756Z,12.60
2022-10-21T20:30:00.623Z,12.70
2022-10-21T20:32:32.223Z,12.60
2022-10-21T20:35:04.735Z,12.70
2022-10-21T20:37:35.714Z,12.70
2022-10-21T20:40:05.707Z,12.70
2022-10-21T20:42:37.034Z,12.70
2022-10-21T20:45:07.927Z,12.60
2022-10-21T20:47:38.995Z,12.70
2022-10-21T20:50:12.591Z,12.70
2022-10-21T20:52:42.965Z,12.70
2022-10-21T20:55:13.009Z,12.70
2022-10-21T20:57:44.573Z,12.70
2022-10-21T21:00:15.329Z,12.70
2022-10-21T21:02:46.143Z,12.70
2022-10-21T21:05:18.814Z,12.70
2022-10-21T21:07:49.880Z,12.70
2022-10-21T21:10:20.427Z,12.70
2022-10-21T21:12:50.413Z,12.70
2022-10-21T21:15:20.928Z,12.70
2022-10-21T21:17:51.123Z,12.70
2022-10-21T21:20:24.486Z,12.70
2022-10-21T21:22:54.406Z,12.70
2022-10-21T21:25:25.110Z,12.70
2022-10-21T21:27:55.390Z,12.70
2022-10-21T21:30:25.608Z,12.70
2022-10-21T21:32:55.545Z,12.70
2022-10-21T21:35:29.890Z,12.70
2022-10-21T21:37:59.916Z,12.70
2022-10-21T21:40:30.541Z,12.70
2022-10-21T21:43:00.515Z,12.70
2022-10-21T21:45:31.255Z,12.70
2022-10-21T21:48:01.251Z,12.80
2022-10-21T21:50:35.211Z,12.70
2022-10-21T21:53:05.399Z,12.80
2022-10-21T21:55:36.257Z,12.80
2022-10-21T21:58:06.318Z,12.80
2022-10-21T22:00:38.325Z,12.80
2022-10-21T22:03:08.263Z,12.80
2022-10-21T22:05:41.034Z,12.80
2022-10-21T22:08:12.949Z,12.80
2022-10-21T22:10:44.254Z,12.80
2022-10-21T22:13:14.594Z,12.80
2022-10-21T22:15:48.801Z,12.80
2022-10-21T22:18:18.944Z,12.80
2022-10-21T22:20:51.925Z,12.80
2022-10-21T22:23:22.249Z,12.80
2022-10-21T22:25:52.896Z,12.80
2022-10-21T22:28:22.796Z,12.80
2022-10-21T22:30:59.883Z,12.80
2022-10-21T22:33:30.426Z,12.80
2022-10-21T22:36:04.455Z,12.80
2022-10-21T22:38:36.628Z,12.80
2022-10-21T22:41:12.184Z,12.80
2022-10-21T22:43:42.960Z,12.80
2022-10-21T22:46:29.172Z,12.80
2022-10-21T22:49:04.570Z,12.80
2022-10-21T22:51:37.743Z,12.80
2022-10-21T22:54:19.310Z,12.80
2022-10-21T22:56:58.549Z,12.80
2022-10-21T22:59:28.620Z,12.90
2022-10-21T23:02:00.716Z,12.90
2022-10-21T23:04:30.967Z,12.90
2022-10-21T23:07:04.480Z,12.90
2022-10-21T23:09:35.386Z,12.90
2022-10-21T23:12:06.278Z,12.80
2022-10-21T23:14:36.585Z,12.80
2022-10-21T23:17:06.896Z,12.90
2022-10-21T23:19:37.141Z,12.90
2022-10-21T23:22:11.013Z,12.90
2022-10-21T23:24:40.868Z,12.90
2022-10-21T23:27:11.150Z,12.90
2022-10-21T23:29:42.776Z,12.80
2022-10-21T23:32:13.399Z,12.80
2022-10-21T23:34:43.273Z,12.80
2022-10-21T23:37:16.384Z,12.80
2022-10-21T23:39:46.573Z,12.80
2022-10-21T23:42:16.768Z,12.80
2022-10-21T23:44:46.625Z,12.80
2022-10-21T23:47:17.129Z,12.80
2022-10-21T23:49:46.966Z,12.80
2022-10-21T23:52:20.680Z,12.80
2022-10-21T23:54:50.526Z,12.80
2022-10-21T23:57:21.995Z,12.80
2022-10-21T23:59:51.815Z,12.80
